createdAt,value
2022-12-11T00:01:53.022Z,93.60
2022-12-11T00:04:21.240Z,93.60
2022-12-11T00:06:50.532Z,93.60
2022-12-11T00:09:19.376Z,93.70
2022-12-11T00:11:48.350Z,93.70
2022-12-11T00:14:17.432Z,93.70
2022-12-11T00:16:45.843Z,93.70
2022-12-11T00:19:15.460Z,93.80
2022-12-11T00:21:43.617Z,93.70
2022-12-11T00:24:11.872Z,93.70
2022-12-11T00:26:40.457Z,93.70
2022-12-11T00:29:11.211Z,93.80
2022-12-11T00:31:39.449Z,93.80
2022-12-11T00:34:07.727Z,93.80
2022-12-11T00:36:37.357Z,93.90
2022-12-11T00:39:06.330Z,93.90
2022-12-11T00:41:34.748Z,93.90
2022-12-11T00:44:03.275Z,93.90
2022-12-11T00:46:31.820Z,93.90
2022-12-11T00:49:00.032Z,93.80
2022-12-11T00:51:28.286Z,93.80
2022-12-11T00:53:57.879Z,93.70
2022-12-11T00:56:26.348Z,93.70
2022-12-11T00:58:54.597Z,93.70
2022-12-11T01:01:25.721Z,93.60
2022-12-11T01:03:54.928Z,93.50
2022-12-11T01:06:26.315Z,93.60
2022-12-11T01:09:15.447Z,93.60
2022-12-11T01:11:44.375Z,93.50
2022-12-11T01:14:13.508Z,93.60
2022-12-11T01:16:41.915Z,93.60
2022-12-11T01:19:10.266Z,93.60
2022-12-11T01:21:38.710Z,93.60
2022-12-11T01:24:07.783Z,93.60
2022-12-11T01:26:36.093Z,93.60
2022-12-11T01:29:05.674Z,93.60
2022-12-11T01:31:34.009Z,93.50
2022-12-11T01:34:02.464Z,93.50
2022-12-11T01:36:30.668Z,93.50
2022-12-11T01:38:59.157Z,93.50
2022-12-11T01:41:27.443Z,93.40
2022-12-11T01:44:06.517Z,93.40
2022-12-11T01:46:37.700Z,93.30
2022-12-11T01:49:09.987Z,93.30
2022-12-11T01:51:43.917Z,93.20
2022-12-11T01:54:14.965Z,93.10
2022-12-11T01:56:45.253Z,93.20
2022-12-11T01:59:19.475Z,93.20
2022-12-11T02:01:52.138Z,93.10
2022-12-11T02:04:21.886Z,93.10
2022-12-11T02:06:52.249Z,93.10
2022-12-11T02:09:24.891Z,93.10
2022-12-11T02:12:03.712Z,93.10
2022-12-11T02:14:40.503Z,93.00
2022-12-11T02:17:14.817Z,93.00
2022-12-11T02:19:56.918Z,93.00
2022-12-11T02:22:42.745Z,93.00
2022-12-11T02:25:19.909Z,92.90
2022-12-11T02:27:56.592Z,92.90
2022-12-11T02:30:26.853Z,92.90
2022-12-11T02:32:58.240Z,92.90
2022-12-11T02:35:32.390Z,92.90
2022-12-11T02:38:04.856Z,92.90
2022-12-11T02:40:36.708Z,92.90
2022-12-11T02:43:08.693Z,92.80
2022-12-11T02:45:40.446Z,92.80
2022-12-11T02:48:12.026Z,92.80
2022-12-11T02:50:45.832Z,92.80
2022-12-11T02:53:17.807Z,92.80
2022-12-11T02:55:47.604Z,92.70
2022-12-11T02:58:21.082Z,92.70
2022-12-11T03:00:51.001Z,92.60
2022-12-11T03:03:19.387Z,92.60
2022-12-11T03:05:47.887Z,92.50
2022-12-11T03:08:17.962Z,92.50
2022-12-11T03:10:47.010Z,92.50
2022-12-11T03:13:18.071Z,92.50
2022-12-11T03:15:54.766Z,92.40
2022-12-11T03:18:32.632Z,92.40
2022-12-11T03:21:07.873Z,92.40
2022-12-11T03:23:43.168Z,92.50
2022-12-11T03:26:14.874Z,92.40
2022-12-11T03:28:50.028Z,92.50
2022-12-11T03:31:28.889Z,92.50
2022-12-11T03:34:03.947Z,92.50
2022-12-11T03:36:36.416Z,92.50
2022-12-11T03:39:10.455Z,92.60
2022-12-11T03:41:39.927Z,92.70
2022-12-11T03:44:10.180Z,92.70
2022-12-11T03:46:42.357Z,92.70
2022-12-11T03:49:17.605Z,92.80
2022-12-11T03:51:50.303Z,92.80
2022-12-11T03:54:19.285Z,92.80
2022-12-11T03:56:49.468Z,92.80
2022-12-11T03:59:17.659Z,92.90
2022-12-11T04:01:47.366Z,92.90
2022-12-11T04:04:15.813Z,92.90
2022-12-11T04:06:44.072Z,92.90
2022-12-11T04:09:12.366Z,92.90
2022-12-11T04:11:42.862Z,92.90
2022-12-11T04:14:32.360Z,92.90
2022-12-11T04:17:03.040Z,92.80
2022-12-11T04:19:48.627Z,92.80
2022-12-11T04:22:51.413Z,92.70
2022-12-11T04:25:20.069Z,92.80
2022-12-11T04:27:51.307Z,92.70
2022-12-11T04:30:22.577Z,92.60
2022-12-11T04:32:53.131Z,92.60
2022-12-11T04:35:21.977Z,92.50
2022-12-11T04:37:50.734Z,92.50
2022-12-11T04:40:20.624Z,92.50
2022-12-11T04:42:49.293Z,92.40
2022-12-11T04:45:17.569Z,92.50
2022-12-11T04:47:45.784Z,92.50
2022-12-11T04:50:16.783Z,92.40
2022-12-11T04:52:45.183Z,92.40
2022-12-11T04:55:14.357Z,92.30
2022-12-11T04:57:42.811Z,92.40
2022-12-11T05:00:13.488Z,92.40
2022-12-11T05:02:43.422Z,92.30
2022-12-11T05:05:14.348Z,92.30
2022-12-11T05:07:43.041Z,92.30
2022-12-11T05:10:11.940Z,92.20
2022-12-11T05:12:40.323Z,92.20
2022-12-11T05:15:10.128Z,92.30
2022-12-11T05:17:38.585Z,92.20
2022-12-11T05:20:08.534Z,92.10
2022-12-11T05:22:38.973Z,92.10
2022-12-11T05:25:08.844Z,92.10
2022-12-11T05:27:37.497Z,92.10
2022-12-11T05:30:07.404Z,92.00
2022-12-11T05:32:35.633Z,91.90
2022-12-11T05:35:04.731Z,91.90
2022-12-11T05:37:35.364Z,91.90
2022-12-11T05:40:07.365Z,91.80
2022-12-11T05:42:35.953Z,91.90
2022-12-11T05:45:04.867Z,91.90
2022-12-11T05:47:33.305Z,91.80
2022-12-11T05:50:01.507Z,91.90
2022-12-11T05:52:29.731Z,91.90
2022-12-11T05:54:57.968Z,91.90
2022-12-11T05:57:27.564Z,91.90
2022-12-11T05:59:55.799Z,91.90
2022-12-11T06:02:24.289Z,91.90
2022-12-11T06:04:52.644Z,91.90
2022-12-11T06:07:20.849Z,91.80
2022-12-11T06:09:49.096Z,91.80
2022-12-11T06:12:18.897Z,91.60
2022-12-11T06:14:48.486Z,91.60
2022-12-11T06:17:16.769Z,91.60
2022-12-11T06:19:44.913Z,91.60
2022-12-11T06:22:13.074Z,91.70
2022-12-11T06:24:41.536Z,91.60
2022-12-11T06:27:10.092Z,91.70
2022-12-11T06:29:38.312Z,91.70
2022-12-11T06:32:08.083Z,91.70
2022-12-11T06:34:36.256Z,91.80
2022-12-11T06:37:04.488Z,91.50
2022-12-11T06:39:32.972Z,91.50
2022-12-11T06:42:01.365Z,91.30
2022-12-11T06:44:29.881Z,91.20
2022-12-11T06:46:58.313Z,91.20
2022-12-11T06:49:27.997Z,91.00
2022-12-11T06:51:56.246Z,90.70
2022-12-11T06:54:27.907Z,90.60
2022-12-11T06:56:56.166Z,90.20
2022-12-11T06:59:24.395Z,90.00
2022-12-11T07:01:52.619Z,89.70
2022-12-11T07:04:24.665Z,89.30
2022-12-11T07:06:54.244Z,89.50
2022-12-11T07:09:22.997Z,89.20
2022-12-11T07:11:51.413Z,89.30
2022-12-11T07:14:20.172Z,89.30
2022-12-11T07:16:48.402Z,89.30
2022-12-11T07:19:16.933Z,89.30
2022-12-11T07:21:45.114Z,89.50
2022-12-11T07:24:14.770Z,89.40
2022-12-11T07:26:43.076Z,89.20
2022-12-11T07:29:11.556Z,89.50
2022-12-11T07:31:39.811Z,89.30
2022-12-11T07:34:08.856Z,89.10
2022-12-11T07:36:37.075Z,89.20
2022-12-11T07:39:05.805Z,89.00
2022-12-11T07:41:35.695Z,89.00
2022-12-11T07:44:04.775Z,88.80
2022-12-11T07:46:34.447Z,88.70
2022-12-11T07:49:03.278Z,88.60
2022-12-11T07:51:33.520Z,88.70
2022-12-11T07:54:04.988Z,89.00
2022-12-11T07:56:35.746Z,88.60
2022-12-11T07:59:06.768Z,88.60
2022-12-11T08:01:37.055Z,88.60
2022-12-11T08:04:07.539Z,88.90
2022-12-11T08:06:38.489Z,88.60
2022-12-11T08:09:09.664Z,88.60
2022-12-11T08:11:39.302Z,88.60
2022-12-11T08:14:08.762Z,88.50
2022-12-11T08:16:38.049Z,88.70
2022-12-11T08:19:06.245Z,88.70
2022-12-11T08:21:34.499Z,88.80
2022-12-11T08:24:02.852Z,88.90
2022-12-11T08:26:32.904Z,88.90
2022-12-11T08:29:03.234Z,88.70
2022-12-11T08:31:32.045Z,89.00
2022-12-11T08:34:00.356Z,89.00
2022-12-11T08:36:28.699Z,89.00
2022-12-11T08:38:58.007Z,88.70
2022-12-11T08:41:28.744Z,88.70
2022-12-11T08:43:58.786Z,88.60
2022-12-11T08:46:30.912Z,88.70
2022-12-11T08:49:00.285Z,88.50
2022-12-11T08:51:30.766Z,88.30
2022-12-11T08:54:01.330Z,88.20
2022-12-11T08:56:30.621Z,88.20
2022-12-11T08:59:01.738Z,88.00
2022-12-11T09:01:31.756Z,87.80
2022-12-11T09:04:00.169Z,87.90
2022-12-11T09:06:30.627Z,87.80
2022-12-11T09:09:01.545Z,88.20
2022-12-11T09:11:32.262Z,88.30
2022-12-11T09:14:06.882Z,88.10
2022-12-11T09:16:40.383Z,87.90
2022-12-11T09:19:12.615Z,88.10
2022-12-11T09:21:44.097Z,88.00
2022-12-11T09:24:14.292Z,88.00
2022-12-11T09:26:43.015Z,88.00
2022-12-11T09:29:13.377Z,88.00
2022-12-11T09:31:43.592Z,87.90
2022-12-11T09:34:14.811Z,87.70
2022-12-11T09:36:45.336Z,87.90
2022-12-11T09:39:15.680Z,87.50
2022-12-11T09:41:53.600Z,87.50
2022-12-11T09:44:32.767Z,87.60
2022-12-11T09:47:02.672Z,87.60
2022-12-11T09:49:39.446Z,87.70
2022-12-11T09:52:15.401Z,87.70
2022-12-11T09:54:50.874Z,87.90
2022-12-11T09:57:46.245Z,87.60
2022-12-11T10:00:28.060Z,87.40
2022-12-11T10:03:34.017Z,87.50
2022-12-11T10:06:09.137Z,87.40
2022-12-11T10:08:46.347Z,87.20
2022-12-11T10:11:34.453Z,87.30
2022-12-11T10:14:11.762Z,87.30
2022-12-11T10:16:45.928Z,87.30
2022-12-11T10:19:22.100Z,86.90
2022-12-11T10:21:52.880Z,87.10
2022-12-11T10:24:59.380Z,87.10
2022-12-11T10:27:21.184Z,87.20
2022-12-11T10:29:54.446Z,87.20
2022-12-11T10:32:26.833Z,87.20
2022-12-11T10:35:02.712Z,87.40
2022-12-11T10:37:30.910Z,87.40
2022-12-11T10:39:59.159Z,87.50
2022-12-11T10:42:27.416Z,87.50
2022-12-11T10:45:01.570Z,87.50
2022-12-11T10:47:30.635Z,87.30
2022-12-11T10:50:03.450Z,86.90
2022-12-11T10:52:38.071Z,87.00
2022-12-11T10:55:10.470Z,87.00
2022-12-11T10:57:40.546Z,87.00
2022-12-11T11:00:33.101Z,86.30
2022-12-11T11:03:02.799Z,86.60
2022-12-11T11:05:36.459Z,86.40
2022-12-11T11:08:19.376Z,86.70
2022-12-11T11:10:56.693Z,87.00
2022-12-11T11:13:27.413Z,86.80
2022-12-11T11:16:02.783Z,86.90
2022-12-11T11:18:33.068Z,87.00
2022-12-11T11:21:03.635Z,86.70
2022-12-11T11:23:32.343Z,86.50
2022-12-11T11:26:03.662Z,86.80
2022-12-11T11:28:36.387Z,86.80
2022-12-11T11:31:07.503Z,86.80
2022-12-11T11:33:38.982Z,87.00
2022-12-11T11:36:21.660Z,86.70
2022-12-11T11:39:04.830Z,86.60
2022-12-11T11:41:42.031Z,86.80
2022-12-11T11:44:16.075Z,86.70
2022-12-11T11:46:50.141Z,86.50
2022-12-11T11:49:27.023Z,86.60
2022-12-11T11:52:03.300Z,86.70
2022-12-11T11:54:36.408Z,87.00
2022-12-11T11:57:17.047Z,86.70
2022-12-11T11:59:51.974Z,86.50
2022-12-11T12:02:21.328Z,86.40
2022-12-11T12:04:51.352Z,86.50
2022-12-11T12:07:36.067Z,86.40
2022-12-11T12:10:16.650Z,87.00
2022-12-11T12:12:53.613Z,86.60
2022-12-11T12:15:37.972Z,86.50
2022-12-11T12:18:16.797Z,86.80
2022-12-11T12:20:56.625Z,86.60
2022-12-11T12:23:49.694Z,86.80
2022-12-11T12:26:27.237Z,86.70
2022-12-11T12:29:12.578Z,86.10
2022-12-11T12:32:02.278Z,86.40
2022-12-11T12:34:54.205Z,86.60
2022-12-11T12:37:43.878Z,86.70
2022-12-11T12:40:21.974Z,86.50
2022-12-11T12:42:59.671Z,86.20
2022-12-11T12:45:34.928Z,86.60
2022-12-11T12:48:03.632Z,86.60
2022-12-11T12:50:39.529Z,86.60
2022-12-11T12:53:09.060Z,86.40
2022-12-11T12:55:38.798Z,86.50
2022-12-11T12:58:08.891Z,86.80
2022-12-11T13:00:40.709Z,86.60
2022-12-11T13:03:17.443Z,86.50
2022-12-11T13:05:57.406Z,86.30
2022-12-11T13:08:27.814Z,86.40
2022-12-11T13:11:04.756Z,86.40
2022-12-11T13:13:38.136Z,86.50
2022-12-11T13:16:28.752Z,86.40
2022-12-11T13:18:57.112Z,86.50
2022-12-11T13:21:33.133Z,86.30
2022-12-11T13:24:25.577Z,86.20
2022-12-11T13:26:55.783Z,86.40
2022-12-11T13:29:35.931Z,86.60
2022-12-11T13:32:22.625Z,86.20
2022-12-11T13:34:57.464Z,86.00
2022-12-11T13:37:31.909Z,86.10
2022-12-11T13:40:00.839Z,86.20
2022-12-11T13:42:34.805Z,86.40
2022-12-11T13:45:05.170Z,86.10
2022-12-11T13:47:34.321Z,86.40
2022-12-11T13:50:16.162Z,86.30
2022-12-11T13:52:54.985Z,86.40
2022-12-11T13:55:27.220Z,86.40
2022-12-11T13:57:57.528Z,86.90
2022-12-11T14:00:29.573Z,86.70
2022-12-11T14:03:01.293Z,86.60
2022-12-11T14:05:30.584Z,86.30
2022-12-11T14:08:03.750Z,85.90
2022-12-11T14:10:33.793Z,86.10
2022-12-11T14:13:07.286Z,86.30
2022-12-11T14:15:38.454Z,85.90
2022-12-11T14:18:07.346Z,85.70
2022-12-11T14:20:36.058Z,86.00
2022-12-11T14:23:09.583Z,86.10
2022-12-11T14:25:37.855Z,85.60
2022-12-11T14:28:18.203Z,85.60
2022-12-11T14:30:51.141Z,85.80
2022-12-11T14:33:23.367Z,85.60
2022-12-11T14:35:53.948Z,85.70
2022-12-11T14:38:26.315Z,85.90
2022-12-11T14:41:00.640Z,86.10
2022-12-11T14:43:35.186Z,85.80
2022-12-11T14:46:09.923Z,85.70
2022-12-11T14:48:44.819Z,85.90
2022-12-11T14:51:18.026Z,85.80
2022-12-11T14:53:50.650Z,85.80
2022-12-11T14:56:21.328Z,85.70
2022-12-11T14:58:57.708Z,85.70
2022-12-11T15:01:29.805Z,85.80
2022-12-11T15:04:07.107Z,86.00
2022-12-11T15:06:44.135Z,86.10
2022-12-11T15:09:20.503Z,86.30
2022-12-11T15:11:51.341Z,86.40
2022-12-11T15:14:24.169Z,86.90
2022-12-11T15:16:56.199Z,86.60
2022-12-11T15:19:28.997Z,86.50
2022-12-11T15:22:02.980Z,86.50
2022-12-11T15:24:39.317Z,86.60
2022-12-11T15:27:29.393Z,86.60
2022-12-11T15:30:00.340Z,86.80
2022-12-11T15:32:28.656Z,86.60
2022-12-11T15:34:58.949Z,86.50
2022-12-11T15:37:31.479Z,86.40
2022-12-11T15:40:02.053Z,86.50
2022-12-11T15:42:34.181Z,86.30
2022-12-11T15:45:07.200Z,86.70
2022-12-11T15:47:35.559Z,86.50
2022-12-11T15:50:18.158Z,86.50
2022-12-11T15:52:50.126Z,86.50
2022-12-11T15:55:19.243Z,86.70
2022-12-11T15:57:50.492Z,86.80
2022-12-11T16:00:23.927Z,86.90
2022-12-11T16:02:52.953Z,86.80
2022-12-11T16:05:21.621Z,86.70
2022-12-11T16:07:52.086Z,86.60
2022-12-11T16:10:23.084Z,86.70
2022-12-11T16:12:51.106Z,86.80
2022-12-11T16:15:23.867Z,86.40
2022-12-11T16:18:03.220Z,86.60
2022-12-11T16:20:32.154Z,86.90
2022-12-11T16:23:00.670Z,86.60
2022-12-11T16:25:29.253Z,86.70
2022-12-11T16:27:58.924Z,86.70
2022-12-11T16:30:30.524Z,86.80
2022-12-11T16:32:58.766Z,86.60
2022-12-11T16:35:27.061Z,86.50
2022-12-11T16:37:56.131Z,86.70
2022-12-11T16:40:25.043Z,86.90
2022-12-11T16:42:54.199Z,86.80
2022-12-11T16:45:25.315Z,86.60
2022-12-11T16:47:55.162Z,86.60
2022-12-11T16:50:25.924Z,86.70
2022-12-11T16:52:54.156Z,86.40
2022-12-11T16:55:22.518Z,86.40
2022-12-11T16:57:50.755Z,86.60
2022-12-11T17:00:20.585Z,86.50
2022-12-11T17:02:49.010Z,86.50
2022-12-11T17:05:19.528Z,86.50
2022-12-11T17:07:47.789Z,86.50
2022-12-11T17:10:16.283Z,86.40
2022-12-11T17:12:44.531Z,86.60
2022-12-11T17:15:12.962Z,86.50
2022-12-11T17:17:43.216Z,86.70
2022-12-11T17:20:12.311Z,86.60
2022-12-11T17:22:41.936Z,86.50
2022-12-11T17:25:11.238Z,86.50
2022-12-11T17:27:39.709Z,86.90
2022-12-11T17:30:10.028Z,86.50
2022-12-11T17:32:38.429Z,86.40
2022-12-11T17:35:07.734Z,86.50
2022-12-11T17:37:36.164Z,86.70
2022-12-11T17:40:07.165Z,86.80
2022-12-11T17:42:35.277Z,86.90
2022-12-11T17:45:03.531Z,86.90
2022-12-11T17:47:31.804Z,87.00
2022-12-11T17:50:00.151Z,86.90
2022-12-11T17:52:33.977Z,87.00
2022-12-11T17:55:03.253Z,87.10
2022-12-11T17:57:33.051Z,86.90
2022-12-11T18:00:01.297Z,87.00
2022-12-11T18:02:29.687Z,87.00
2022-12-11T18:04:57.915Z,87.00
2022-12-11T18:07:26.573Z,87.00
2022-12-11T18:09:55.003Z,86.90
2022-12-11T18:12:23.249Z,86.70
2022-12-11T18:14:52.804Z,86.80
2022-12-11T18:17:21.198Z,86.80
2022-12-11T18:19:49.387Z,87.00
2022-12-11T18:22:17.561Z,86.80
2022-12-11T18:24:46.440Z,86.90
2022-12-11T18:27:15.189Z,87.00
2022-12-11T18:29:43.391Z,87.00
2022-12-11T18:32:12.973Z,87.10
2022-12-11T18:34:41.278Z,87.10
2022-12-11T18:37:09.567Z,86.90
2022-12-11T18:39:37.857Z,87.10
2022-12-11T18:42:31.547Z,87.20
2022-12-11T18:44:54.572Z,87.10
2022-12-11T18:47:24.184Z,87.10
2022-12-11T18:49:52.609Z,87.10
2022-12-11T18:52:20.946Z,87.10
2022-12-11T18:54:52.103Z,87.10
2022-12-11T18:57:20.395Z,87.30
2022-12-11T18:59:52.394Z,87.30
2022-12-11T19:02:21.351Z,87.30
2022-12-11T19:04:50.999Z,87.20
2022-12-11T19:07:19.305Z,87.30
2022-12-11T19:09:48.400Z,87.40
2022-12-11T19:12:17.042Z,87.50
2022-12-11T19:14:45.239Z,87.40
2022-12-11T19:17:13.463Z,87.40
2022-12-11T19:19:43.188Z,87.40
2022-12-11T19:22:12.957Z,87.40
2022-12-11T19:24:41.258Z,87.40
2022-12-11T19:27:13.520Z,87.50
2022-12-11T19:29:42.327Z,87.20
2022-12-11T19:32:10.927Z,87.40
2022-12-11T19:34:39.495Z,87.20
2022-12-11T19:37:08.002Z,87.30
2022-12-11T19:39:40.732Z,87.50
2022-12-11T19:42:09.065Z,87.40
2022-12-11T19:44:37.359Z,87.20
2022-12-11T19:47:06.026Z,87.10
2022-12-11T19:49:34.351Z,87.20
2022-12-11T19:52:04.709Z,87.60
2022-12-11T19:54:33.854Z,87.40
2022-12-11T19:57:04.174Z,87.10
2022-12-11T19:59:33.527Z,87.20
2022-12-11T20:02:02.059Z,87.40
2022-12-11T20:04:30.450Z,87.30
2022-12-11T20:06:58.968Z,87.20
2022-12-11T20:09:27.874Z,87.20
2022-12-11T20:11:56.303Z,87.30
2022-12-11T20:14:27.800Z,87.20
2022-12-11T20:17:13.791Z,87.20
2022-12-11T20:19:43.603Z,87.20
2022-12-11T20:22:12.006Z,87.00
2022-12-11T20:24:40.521Z,87.10
2022-12-11T20:27:09.545Z,87.00
2022-12-11T20:29:39.310Z,87.00
2022-12-11T20:32:11.246Z,87.00
2022-12-11T20:34:39.857Z,87.10
2022-12-11T20:37:08.900Z,87.10
2022-12-11T20:39:37.886Z,87.00
2022-12-11T20:42:06.402Z,87.00
2022-12-11T20:44:34.821Z,87.20
2022-12-11T20:47:06.696Z,87.40
2022-12-11T20:49:35.457Z,87.60
2022-12-11T20:52:04.317Z,87.40
2022-12-11T20:54:32.683Z,87.50
2022-12-11T20:57:00.946Z,87.70
2022-12-11T20:59:29.256Z,87.60
2022-12-11T21:01:57.583Z,88.00
2022-12-11T21:04:27.390Z,87.70
2022-12-11T21:06:56.233Z,87.90
2022-12-11T21:09:26.766Z,87.60
2022-12-11T21:11:58.202Z,87.50
2022-12-11T21:14:26.415Z,87.50
2022-12-11T21:16:55.389Z,87.70
2022-12-11T21:19:23.890Z,87.60
2022-12-11T21:21:54.513Z,87.40
2022-12-11T21:24:26.619Z,87.30
2022-12-11T21:26:56.342Z,87.50
2022-12-11T21:29:25.990Z,87.70
2022-12-11T21:31:54.835Z,87.60
2022-12-11T21:34:25.530Z,87.70
2022-12-11T21:36:57.032Z,88.10
2022-12-11T21:39:26.973Z,87.90
2022-12-11T21:41:55.310Z,87.50
2022-12-11T21:47:11.711Z,87.40
2022-12-11T21:49:40.119Z,87.10
2022-12-11T21:52:10.227Z,87.00
2022-12-11T21:54:39.552Z,86.90
2022-12-11T21:57:08.554Z,87.00
2022-12-11T21:59:37.011Z,87.20
2022-12-11T22:02:05.573Z,87.00
2022-12-11T22:04:33.862Z,87.10
2022-12-11T22:07:02.119Z,87.10
2022-12-11T22:09:31.710Z,86.80
2022-12-11T22:12:00.143Z,86.80
2022-12-11T22:14:30.862Z,86.60
2022-12-11T22:16:59.369Z,87.00
2022-12-11T22:19:32.331Z,87.00
2022-12-11T22:22:00.988Z,87.00
2022-12-11T22:24:29.211Z,87.10
2022-12-11T22:26:58.775Z,87.10
2022-12-11T22:29:27.161Z,87.30
2022-12-11T22:31:55.580Z,87.10
2022-12-11T22:34:24.195Z,87.00
2022-12-11T22:36:52.456Z,87.00
2022-12-11T22:39:20.660Z,87.30
2022-12-11T22:41:48.877Z,87.10
2022-12-11T22:44:21.561Z,87.10
2022-12-11T22:46:50.925Z,87.10
2022-12-11T22:49:19.440Z,86.90
2022-12-11T22:51:47.769Z,87.10
2022-12-11T22:54:16.315Z,87.20
2022-12-11T22:56:44.640Z,87.30
2022-12-11T22:59:12.967Z,87.30
2022-12-11T23:01:42.705Z,87.30
2022-12-11T23:04:11.011Z,87.50
2022-12-11T23:06:39.483Z,87.50
2022-12-11T23:09:08.167Z,87.80
2022-12-11T23:11:39.998Z,87.70
2022-12-11T23:14:12.612Z,87.60
2022-12-11T23:16:43.184Z,87.50
2022-12-11T23:19:12.817Z,87.60
2022-12-11T23:21:41.032Z,87.60
2022-12-11T23:24:10.076Z,87.80
2022-12-11T23:26:38.660Z,87.50
2022-12-11T23:29:07.882Z,87.70
2022-12-11T23:31:36.472Z,87.70
2022-12-11T23:34:06.580Z,87.60
2022-12-11T23:36:34.865Z,87.80
2022-12-11T23:39:03.176Z,87.70
2022-12-11T23:41:31.428Z,87.70
2022-12-11T23:43:59.899Z,87.60
2022-12-11T23:46:28.745Z,87.70
2022-12-11T23:48:57.098Z,87.60
2022-12-11T23:51:27.095Z,87.90
2022-12-11T23:53:55.643Z,87.90
2022-12-11T23:56:26.837Z,88.00
2022-12-11T23:58:56.032Z,88.10
